Time;durP1;ratioP1;P1;durP2;ratioP2;P2;SDS_P1;SDS_P2;PMS_P1;PMS_P2;Temp;Humidity;BMP_temperature;BMP_pressure;BME280_temperature;BME280_humidity;BME280_pressure;Samples;Min_cycle;Max_cycle;Signal;HPM_P1;HPM_P2
2022/11/12 00:00:58;;;;;;;17.33;7.70;;;6.60;99.90;;;;;;5087016;28;20213;-71
2022/11/12 00:03:23;;;;;;;11.20;7.30;;;6.60;99.90;;;;;;5086101;28;20175;-72
2022/11/12 00:05:50;;;;;;;7.80;7.03;;;6.70;99.90;;;;;;5079766;28;20557;-72
2022/11/12 00:08:16;;;;;;;7.75;6.93;;;6.70;99.90;;;;;;5083068;28;20608;-72
2022/11/12 00:10:41;;;;;;;9.70;6.70;;;6.60;99.90;;;;;;5071005;28;20572;-72
2022/11/12 00:13:07;;;;;;;11.60;7.32;;;6.60;99.90;;;;;;5075562;28;20182;-72
2022/11/12 00:15:33;;;;;;;7.93;6.95;;;6.60;99.90;;;;;;5073791;28;20197;-72
2022/11/12 00:17:58;;;;;;;8.55;6.55;;;6.60;99.90;;;;;;5084792;28;20261;-72
2022/11/12 00:20:24;;;;;;;18.15;7.70;;;6.60;99.90;;;;;;5086939;28;20517;-72
2022/11/12 00:22:50;;;;;;;8.60;6.60;;;6.60;99.90;;;;;;5078290;28;20656;-72
2022/11/12 00:25:15;;;;;;;6.82;6.15;;;6.60;99.90;;;;;;5077931;28;20184;-72
2022/11/12 00:27:41;;;;;;;14.73;8.15;;;6.60;99.90;;;;;;5069007;28;20203;-72
2022/11/12 00:30:07;;;;;;;33.97;8.50;;;6.60;99.90;;;;;;5075619;28;20206;-72
2022/11/12 00:32:36;;;;;;;28.45;7.30;;;6.50;99.90;;;;;;5070579;28;20211;-72
2022/11/12 00:35:05;;;;;;;14.15;7.03;;;6.40;99.90;;;;;;5078694;28;20280;-72
2022/11/12 00:37:31;;;;;;;16.90;6.65;;;6.40;99.90;;;;;;5069136;28;20191;-72
2022/11/12 00:39:56;;;;;;;21.48;6.85;;;6.30;99.90;;;;;;5078500;28;20619;-72
2022/11/12 00:42:22;;;;;;;23.80;6.93;;;6.30;99.90;;;;;;5064080;28;20187;-72
2022/11/12 00:44:48;;;;;;;34.10;5.90;;;6.20;99.90;;;;;;5066804;28;20536;-72
2022/11/12 00:47:15;;;;;;;6.68;5.97;;;6.10;99.90;;;;;;5083035;28;20707;-72
2022/11/12 00:49:40;;;;;;;6.10;5.55;;;6.10;99.90;;;;;;5078340;28;20210;-72
2022/11/12 00:52:06;;;;;;;6.30;5.80;;;6.30;99.90;;;;;;5084862;28;20224;-72
2022/11/12 00:54:31;;;;;;;26.40;6.47;;;6.40;99.90;;;;;;5080214;28;20254;-72
2022/11/12 00:56:57;;;;;;;16.63;6.07;;;6.30;99.90;;;;;;5071532;28;20547;-72
2022/11/12 00:59:22;;;;;;;11.43;6.03;;;6.20;99.90;;;;;;5074536;28;20190;-72
2022/11/12 01:01:48;;;;;;;16.08;6.03;;;6.30;99.90;;;;;;5076489;28;20179;-72
2022/11/12 01:04:14;;;;;;;10.25;5.38;;;6.30;99.90;;;;;;5081793;28;20210;-72
2022/11/12 01:06:40;;;;;;;5.50;5.00;;;6.40;99.90;;;;;;5083084;28;20258;-72
2022/11/12 01:09:06;;;;;;;5.95;5.43;;;6.40;99.90;;;;;;5080789;28;20561;-72
2022/11/12 01:11:32;;;;;;;6.88;5.47;;;6.40;99.90;;;;;;5075132;28;20206;-72
2022/11/12 01:14:00;;;;;;;6.70;6.10;;;6.40;99.90;;;;;;5058804;28;20177;-72
2022/11/12 01:16:29;;;;;;;19.58;6.35;;;6.40;99.90;;;;;;5081706;28;20202;-72
2022/11/12 01:18:59;;;;;;;12.23;5.57;;;6.20;99.90;;;;;;5082678;28;20705;-72
2022/11/12 01:21:28;;;;;;;21.02;7.10;;;6.20;99.90;;;;;;5064395;28;20182;-72
2022/11/12 01:23:57;;;;;;;9.00;5.82;;;6.20;99.90;;;;;;5071070;28;20175;-72
2022/11/12 01:26:23;;;;;;;23.90;6.90;;;6.10;99.90;;;;;;5064991;28;20642;-72
2022/11/12 01:28:49;;;;;;;5.93;5.43;;;6.10;99.90;;;;;;5072436;28;20230;-72
2022/11/12 01:31:18;;;;;;;12.18;6.40;;;6.20;99.90;;;;;;5084348;28;20694;-72
2022/11/12 01:33:46;;;;;;;23.90;7.78;;;6.20;99.90;;;;;;5071993;28;20202;-72
2022/11/12 01:36:14;;;;;;;13.77;6.35;;;6.10;99.90;;;;;;5083530;28;20180;-72
2022/11/12 01:38:41;;;;;;;21.60;7.47;;;6.00;99.90;;;;;;5085079;28;20703;-72
2022/11/12 01:41:09;;;;;;;22.63;8.20;;;6.00;99.90;;;;;;5074804;28;20187;-72
2022/11/12 01:43:35;;;;;;;7.25;6.45;;;6.00;99.90;;;;;;5091995;28;20228;-72
2022/11/12 01:46:12;;;;;;;8.60;6.45;;;6.10;99.90;;;;;;5077459;28;20191;-72
2022/11/12 01:48:51;;;;;;;33.13;7.75;;;6.10;99.90;;;;;;5080716;28;20194;-72
2022/11/12 01:51:19;;;;;;;10.43;5.85;;;6.20;99.90;;;;;;5083808;28;20217;-72
2022/11/12 01:53:48;;;;;;;13.52;6.35;;;6.20;99.90;;;;;;5085055;28;20202;-72
2022/11/12 01:56:16;;;;;;;19.90;5.90;;;6.20;99.90;;;;;;5090150;28;20183;-72
2022/11/12 01:58:44;;;;;;;7.15;5.72;;;6.30;99.90;;;;;;5077175;28;20195;-73
2022/11/12 02:01:09;;;;;;;10.88;5.40;;;6.20;99.90;;;;;;5076265;28;20658;-72
2022/11/12 02:03:35;;;;;;;14.65;5.90;;;6.10;99.90;;;;;;5075798;28;20205;-72
2022/11/12 02:06:08;;;;;;;26.75;5.53;;;6.20;99.90;;;;;;5072743;28;20190;-72
2022/11/12 02:08:36;;;;;;;28.13;6.32;;;6.20;99.90;;;;;;5062265;28;20199;-72
2022/11/12 02:11:10;;;;;;;38.60;6.75;;;6.10;99.90;;;;;;5085492;28;20270;-72
2022/11/12 02:16:20;;;;;;;12.75;4.90;;;6.00;99.90;;;;;;5069933;28;20227;-72
2022/11/12 02:18:45;;;;;;;8.68;4.95;;;6.00;99.90;;;;;;5071092;28;20195;-72
2022/11/12 02:21:11;;;;;;;10.88;5.05;;;6.10;99.90;;;;;;5071451;28;20190;-72
2022/11/12 02:23:37;;;;;;;5.55;4.97;;;6.00;99.90;;;;;;5066869;28;20711;-71
2022/11/12 02:26:03;;;;;;;5.30;4.32;;;6.00;99.90;;;;;;5062753;28;20186;-72
2022/11/12 02:28:31;;;;;;;4.55;4.18;;;5.90;99.90;;;;;;5071902;28;20206;-71
2022/11/12 02:30:56;;;;;;;13.45;5.53;;;6.00;99.90;;;;;;5086449;28;20194;-71
2022/11/12 02:33:22;;;;;;;28.13;5.90;;;5.90;99.90;;;;;;5060150;28;20194;-71
2022/11/12 02:35:47;;;;;;;10.88;5.10;;;5.80;99.90;;;;;;5061585;28;20271;-72
2022/11/12 02:38:13;;;;;;;21.58;5.85;;;5.90;99.90;;;;;;5073526;28;20222;-72
2022/11/12 02:40:39;;;;;;;18.50;5.70;;;5.80;99.90;;;;;;5074751;28;20530;-72
2022/11/12 02:43:04;;;;;;;9.65;4.45;;;5.80;99.90;;;;;;5079893;28;20182;-72
2022/11/12 02:45:31;;;;;;;30.25;5.07;;;5.90;99.90;;;;;;5076460;28;20202;-71
2022/11/12 02:47:57;;;;;;;35.72;6.13;;;5.80;99.90;;;;;;5085996;28;20292;-72
2022/11/12 02:50:23;;;;;;;27.25;5.85;;;5.80;99.90;;;;;;5078059;28;20229;-72
2022/11/12 02:52:48;;;;;;;14.82;4.78;;;5.80;99.90;;;;;;5063943;28;20176;-71
2022/11/12 02:55:14;;;;;;;35.92;6.40;;;5.70;99.90;;;;;;5073575;28;20187;-71
2022/11/12 02:57:40;;;;;;;18.75;4.78;;;5.70;99.90;;;;;;5076305;28;20759;-71
2022/11/12 03:00:09;;;;;;;20.23;5.78;;;5.70;99.90;;;;;;5067687;28;20199;-72
2022/11/12 03:02:41;;;;;;;30.75;6.43;;;5.70;99.90;;;;;;5066002;28;20183;-72
2022/11/12 03:05:08;;;;;;;8.27;4.43;;;5.60;99.90;;;;;;5064752;28;20255;-72
2022/11/12 03:07:34;;;;;;;8.98;4.50;;;5.60;99.90;;;;;;5067484;28;20567;-72
2022/11/12 03:09:59;;;;;;;14.25;4.78;;;5.70;99.90;;;;;;5066089;28;20206;-72
2022/11/12 03:12:25;;;;;;;16.15;5.18;;;5.70;99.90;;;;;;5067030;28;20334;-72
2022/11/12 03:14:51;;;;;;;22.23;5.35;;;5.70;99.90;;;;;;5070749;28;20552;-72
2022/11/12 03:17:16;;;;;;;17.67;5.00;;;5.60;99.90;;;;;;5076653;28;20168;-72
2022/11/12 03:19:42;;;;;;;4.60;4.10;;;5.60;99.90;;;;;;5078585;28;20179;-72
2022/11/12 03:22:07;;;;;;;7.38;4.50;;;5.60;99.90;;;;;;5073171;28;20582;-71
2022/11/12 03:24:33;;;;;;;10.43;4.45;;;5.70;99.90;;;;;;5069698;28;20175;-71
2022/11/12 03:26:58;;;;;;;7.07;3.95;;;5.70;99.90;;;;;;5070713;28;20179;-71
2022/11/12 03:29:25;;;;;;;7.22;4.30;;;5.80;99.90;;;;;;5076029;28;20178;-71
2022/11/12 03:31:50;;;;;;;5.93;4.13;;;5.70;99.90;;;;;;5067348;28;20164;-71
2022/11/12 03:34:16;;;;;;;4.57;4.18;;;5.70;99.90;;;;;;5068990;28;20182;-71
2022/11/12 03:36:41;;;;;;;5.38;4.18;;;5.70;99.90;;;;;;5080001;28;20549;-71
2022/11/12 03:39:07;;;;;;;4.00;3.70;;;5.70;99.90;;;;;;5069394;28;20194;-71
2022/11/12 03:41:32;;;;;;;6.70;4.43;;;5.60;99.90;;;;;;5071291;28;20187;-71
2022/11/12 03:43:58;;;;;;;5.00;4.50;;;5.70;99.90;;;;;;5063025;28;20777;-71
2022/11/12 03:46:24;;;;;;;5.05;4.57;;;5.70;99.90;;;;;;5074041;28;20257;-71
2022/11/12 03:48:49;;;;;;;4.90;4.32;;;5.70;99.90;;;;;;5077227;28;20206;-71
2022/11/12 03:51:16;;;;;;;6.20;4.25;;;5.70;99.90;;;;;;5080628;28;20195;-72
2022/11/12 03:53:41;;;;;;;4.68;4.28;;;5.80;99.90;;;;;;5084606;28;20182;-71
2022/11/12 03:56:07;;;;;;;4.45;4.15;;;5.70;99.90;;;;;;5075145;28;20773;-71
2022/11/12 03:58:33;;;;;;;14.45;5.03;;;5.70;99.90;;;;;;5083387;28;20191;-71
2022/11/12 04:00:58;;;;;;;9.02;5.30;;;5.70;99.90;;;;;;5064163;28;20270;-71
2022/11/12 04:03:24;;;;;;;15.70;5.20;;;5.60;99.90;;;;;;5074493;28;20547;-71
2022/11/12 04:08:36;;;;;;;11.60;4.75;;;5.60;99.90;;;;;;5067337;28;20704;-72
2022/11/12 04:11:07;;;;;;;12.45;5.45;;;5.60;99.90;;;;;;5076842;28;20701;-72
2022/11/12 04:13:34;;;;;;;4.68;4.38;;;5.60;99.90;;;;;;5087586;28;20171;-72
2022/11/12 04:21:55;;;;;;;4.20;3.80;;;5.60;99.90;;;;;;5072805;28;20259;-72
2022/11/12 04:27:17;;;;;;;10.20;5.05;;;5.60;99.90;;;;;;5073460;28;20567;-72
2022/11/12 04:32:30;;;;;;;8.70;4.50;;;5.60;99.90;;;;;;5066424;28;20379;-71
2022/11/12 04:34:55;;;;;;;4.10;3.72;;;5.70;99.90;;;;;;5073127;28;20187;-71
2022/11/12 04:37:23;;;;;;;5.75;3.67;;;5.70;99.90;;;;;;5074465;28;20210;-71
2022/11/12 04:39:49;;;;;;;10.38;4.05;;;5.70;99.90;;;;;;5078558;28;20273;-71
2022/11/12 04:45:05;;;;;;;6.47;3.75;;;5.60;99.90;;;;;;5064996;28;20197;-71
2022/11/12 04:47:45;;;;;;;14.90;4.80;;;5.60;99.90;;;;;;5067246;28;20981;-71
2022/11/12 04:50:14;;;;;;;5.25;4.13;;;5.60;99.90;;;;;;5071693;28;20207;-71
2022/11/12 04:52:39;;;;;;;18.33;4.35;;;5.60;99.90;;;;;;5079106;28;20178;-71
2022/11/12 04:55:06;;;;;;;7.82;3.90;;;5.60;99.90;;;;;;5080903;28;20249;-72
2022/11/12 04:57:31;;;;;;;12.25;3.80;;;5.60;99.90;;;;;;5076488;28;20217;-72
2022/11/12 04:59:57;;;;;;;19.63;4.60;;;5.60;99.90;;;;;;5075964;28;20179;-72
2022/11/12 05:02:22;;;;;;;19.35;4.85;;;5.50;99.90;;;;;;5073271;28;20214;-72
2022/11/12 05:04:48;;;;;;;23.10;5.43;;;5.40;99.90;;;;;;5067234;28;20184;-72
2022/11/12 05:07:14;;;;;;;5.60;3.60;;;5.30;99.90;;;;;;5081206;28;20254;-72
2022/11/12 05:09:40;;;;;;;15.70;4.90;;;5.30;99.90;;;;;;5078280;28;20203;-72
2022/11/12 05:12:06;;;;;;;9.90;4.22;;;5.40;99.90;;;;;;5079965;28;20171;-71
2022/11/12 05:14:32;;;;;;;11.88;4.38;;;5.40;99.90;;;;;;5076501;28;20175;-71
2022/11/12 05:16:57;;;;;;;5.85;3.70;;;5.50;99.90;;;;;;5085618;28;20236;-72
2022/11/12 05:19:23;;;;;;;15.02;4.00;;;5.50;99.90;;;;;;5086260;28;20222;-72
2022/11/12 05:22:04;;;;;;;4.22;3.75;;;5.40;99.90;;;;;;5072634;28;20187;-72
2022/11/12 05:24:31;;;;;;;4.35;3.95;;;5.50;99.90;;;;;;5082799;28;20170;-71
2022/11/12 05:26:57;;;;;;;4.45;3.72;;;5.50;99.90;;;;;;5084240;28;20179;-71
2022/11/12 05:29:23;;;;;;;10.48;3.85;;;5.40;99.90;;;;;;5082555;28;20221;-72
2022/11/12 05:31:48;;;;;;;6.38;4.20;;;5.50;99.90;;;;;;5081433;28;20312;-72
2022/11/12 05:34:14;;;;;;;73.80;8.70;;;5.40;99.90;;;;;;5075668;28;20168;-72
2022/11/12 05:36:39;;;;;;;36.85;5.75;;;5.30;99.90;;;;;;5074406;28;20179;-72
2022/11/12 05:39:05;;;;;;;4.75;3.55;;;5.20;99.90;;;;;;5061778;28;21294;-72
2022/11/12 05:41:30;;;;;;;42.25;6.38;;;5.20;99.90;;;;;;5067773;28;20180;-72
2022/11/12 05:43:56;;;;;;;5.35;4.20;;;5.20;99.90;;;;;;5066544;28;20254;-72
2022/11/12 05:46:22;;;;;;;12.77;4.82;;;5.20;99.90;;;;;;5066258;28;20999;-72
2022/11/12 05:48:47;;;;;;;17.48;4.43;;;5.20;99.90;;;;;;5070701;28;20237;-71
2022/11/12 05:51:13;;;;;;;3.88;3.58;;;5.30;99.90;;;;;;5074209;28;20203;-71
2022/11/12 05:53:40;;;;;;;12.52;3.80;;;5.20;99.90;;;;;;5074898;28;20622;-71
2022/11/12 05:56:06;;;;;;;8.73;4.07;;;5.30;99.90;;;;;;5070862;28;20297;-71
2022/11/12 05:58:32;;;;;;;26.60;5.13;;;5.30;99.90;;;;;;5075870;28;20282;-71
2022/11/12 06:00:58;;;;;;;5.05;3.67;;;5.30;99.90;;;;;;5077300;28;20945;-72
2022/11/12 06:03:25;;;;;;;7.72;4.30;;;5.20;99.90;;;;;;5079239;28;20183;-72
2022/11/12 06:05:51;;;;;;;18.55;4.93;;;5.20;99.90;;;;;;5073746;28;20187;-72
2022/11/12 06:08:17;;;;;;;7.75;3.97;;;5.20;99.90;;;;;;5075212;28;20206;-72
2022/11/12 06:10:46;;;;;;;16.65;4.00;;;5.30;99.90;;;;;;5052183;28;20199;-72
2022/11/12 06:13:12;;;;;;;17.92;4.65;;;5.30;99.90;;;;;;5059844;28;20199;-72
2022/11/12 06:15:37;;;;;;;9.55;4.38;;;5.30;99.90;;;;;;5058223;28;20179;-72
2022/11/12 06:18:03;;;;;;;11.82;4.68;;;5.30;99.90;;;;;;5057388;28;20195;-72
2022/11/12 06:20:29;;;;;;;9.10;4.30;;;5.30;99.90;;;;;;5062608;28;20362;-72
2022/11/12 06:22:56;;;;;;;8.23;4.25;;;5.30;99.90;;;;;;5056824;28;20184;-71
2022/11/12 06:25:22;;;;;;;12.32;4.97;;;5.20;99.90;;;;;;5064838;28;21130;-72
2022/11/12 06:27:47;;;;;;;22.67;5.55;;;5.20;99.90;;;;;;5058682;28;20282;-72
2022/11/12 06:30:13;;;;;;;24.92;5.95;;;5.20;99.90;;;;;;5058751;28;20204;-72
2022/11/12 06:32:39;;;;;;;8.98;3.90;;;5.30;99.90;;;;;;5068926;28;20182;-72
2022/11/12 06:35:05;;;;;;;7.35;4.05;;;5.30;99.90;;;;;;5066030;28;20665;-72
2022/11/12 06:37:31;;;;;;;22.58;4.82;;;5.40;99.90;;;;;;5062585;28;20265;-72
2022/11/12 06:39:57;;;;;;;22.85;5.18;;;5.40;99.90;;;;;;5068728;28;20186;-72
2022/11/12 06:42:22;;;;;;;8.13;3.90;;;5.40;99.90;;;;;;5073732;28;20179;-72
2022/11/12 06:44:48;;;;;;;9.55;4.72;;;5.20;99.90;;;;;;5071539;28;20228;-71
2022/11/12 06:47:13;;;;;;;11.05;4.85;;;5.20;99.90;;;;;;5071099;28;20187;-71
2022/11/12 06:49:39;;;;;;;5.38;4.88;;;5.20;99.90;;;;;;5075649;28;20179;-72
2022/11/12 06:52:04;;;;;;;14.82;4.97;;;5.30;99.90;;;;;;5075564;28;20176;-72
2022/11/12 06:54:30;;;;;;;14.25;5.65;;;5.30;99.90;;;;;;5069974;28;20180;-72
2022/11/12 06:56:56;;;;;;;24.38;4.75;;;5.40;99.90;;;;;;5069878;28;20175;-72
2022/11/12 06:59:21;;;;;;;9.18;4.40;;;5.40;99.90;;;;;;5073800;28;20199;-72
2022/11/12 07:01:47;;;;;;;15.70;4.75;;;5.30;99.90;;;;;;5065831;28;20176;-72
2022/11/12 07:04:12;;;;;;;25.92;5.88;;;5.30;99.90;;;;;;5067723;28;20180;-72
2022/11/12 07:06:38;;;;;;;27.25;5.35;;;5.30;99.90;;;;;;5073719;28;20168;-72
2022/11/12 07:09:04;;;;;;;33.63;5.57;;;5.30;99.90;;;;;;5075360;28;20598;-72
2022/11/12 07:11:30;;;;;;;10.73;5.07;;;5.40;99.90;;;;;;5076260;28;20203;-72
2022/11/12 07:13:55;;;;;;;20.98;5.75;;;5.40;99.90;;;;;;5072727;28;20271;-72
2022/11/12 07:16:21;;;;;;;15.18;5.10;;;5.40;99.90;;;;;;5075258;28;20841;-72
2022/11/12 07:18:48;;;;;;;4.70;4.30;;;5.50;99.90;;;;;;5073643;28;20211;-72
2022/11/12 07:21:18;;;;;;;4.95;4.40;;;5.50;99.90;;;;;;5080275;28;20262;-72
2022/11/12 07:23:45;;;;;;;17.40;5.22;;;5.70;99.90;;;;;;5074324;28;20258;-72
2022/11/12 07:26:21;;;;;;;11.70;4.47;;;5.70;99.90;;;;;;5079690;28;20277;-72
2022/11/12 07:28:49;;;;;;;12.13;4.85;;;5.80;99.90;;;;;;5076038;28;20536;-72
2022/11/12 07:31:16;;;;;;;7.50;4.47;;;5.80;99.90;;;;;;5079586;28;20198;-75
2022/11/12 07:33:42;;;;;;;8.40;4.30;;;5.70;99.90;;;;;;5073481;28;20179;-75
2022/11/12 07:36:10;;;;;;;5.60;4.03;;;5.70;99.90;;;;;;5071793;28;20300;-75
2022/11/12 07:38:38;;;;;;;7.03;3.55;;;5.80;99.90;;;;;;5069488;28;20867;-75
2022/11/12 07:41:06;;;;;;;9.00;4.18;;;5.90;99.90;;;;;;5077998;28;20171;-75
2022/11/12 07:43:33;;;;;;;13.13;4.70;;;6.00;99.90;;;;;;5084152;28;20243;-75
2022/11/12 07:46:04;;;;;;;5.28;3.83;;;6.00;99.90;;;;;;5084204;28;20567;-75
2022/11/12 07:48:30;;;;;;;5.53;4.18;;;6.00;99.90;;;;;;5071477;28;20230;-75
2022/11/12 07:51:06;;;;;;;4.03;3.72;;;6.10;99.90;;;;;;5076341;28;20280;-75
2022/11/12 07:53:32;;;;;;;4.07;3.78;;;6.20;99.90;;;;;;5072916;28;20175;-75
2022/11/12 07:56:00;;;;;;;6.13;4.63;;;6.30;99.90;;;;;;5077200;28;20178;-75
2022/11/12 07:58:28;;;;;;;6.75;4.18;;;6.40;99.90;;;;;;5060773;28;20195;-74
2022/11/12 08:00:54;;;;;;;4.20;3.90;;;6.40;99.90;;;;;;5066523;28;20187;-74
2022/11/12 08:03:20;;;;;;;7.15;3.75;;;6.50;99.90;;;;;;5076326;28;20203;-74
2022/11/12 08:05:46;;;;;;;10.20;4.20;;;6.50;99.90;;;;;;5075190;28;20262;-74
2022/11/12 08:08:12;;;;;;;12.63;4.60;;;6.60;99.90;;;;;;5069659;28;20206;-75
2022/11/12 08:10:38;;;;;;;4.50;4.10;;;6.50;99.90;;;;;;5060208;28;20624;-74
2022/11/12 08:13:03;;;;;;;4.07;3.72;;;6.60;99.90;;;;;;5070962;28;20532;-75
2022/11/12 08:15:30;;;;;;;13.77;4.88;;;6.60;99.90;;;;;;5064740;28;20229;-75
2022/11/12 08:17:55;;;;;;;6.20;3.25;;;6.60;99.90;;;;;;5069662;28;20550;-75
2022/11/12 08:20:21;;;;;;;13.70;3.83;;;6.60;99.90;;;;;;5071374;28;20245;-75
2022/11/12 08:22:47;;;;;;;15.10;4.07;;;6.60;99.90;;;;;;5075954;28;20233;-76
2022/11/12 08:25:13;;;;;;;4.10;3.10;;;6.70;99.90;;;;;;5065479;28;20195;-76
2022/11/12 08:27:38;;;;;;;3.03;2.83;;;6.80;99.90;;;;;;5072759;28;20944;-76
2022/11/12 08:30:04;;;;;;;3.20;3.00;;;7.00;99.90;;;;;;5084287;28;20293;-76
2022/11/12 08:32:30;;;;;;;2.97;2.80;;;7.10;99.90;;;;;;5073042;28;20669;-73
2022/11/12 08:34:56;;;;;;;11.45;3.58;;;7.20;99.90;;;;;;5065142;28;20179;-74
2022/11/12 08:37:21;;;;;;;6.65;3.50;;;7.30;99.90;;;;;;5081074;28;20211;-75
2022/11/12 08:39:47;;;;;;;12.18;3.83;;;7.40;99.90;;;;;;5059438;28;20180;-73
2022/11/12 08:42:13;;;;;;;6.20;3.75;;;7.40;99.90;;;;;;5068776;28;20576;-74
2022/11/12 08:44:38;;;;;;;14.77;3.83;;;7.30;99.90;;;;;;5083073;28;20194;-73
2022/11/12 08:47:04;;;;;;;3.25;2.95;;;7.20;99.90;;;;;;5080452;28;20723;-73
2022/11/12 08:49:30;;;;;;;4.18;3.13;;;7.30;99.90;;;;;;5077341;28;20208;-73
2022/11/12 08:51:56;;;;;;;5.15;3.42;;;7.30;99.90;;;;;;5078431;28;20183;-82
2022/11/12 08:54:22;;;;;;;2.88;2.70;;;7.40;99.90;;;;;;5069196;28;20186;-82
2022/11/12 08:56:48;;;;;;;3.35;3.05;;;7.40;99.90;;;;;;5072760;28;20179;-82
2022/11/12 08:59:13;;;;;;;3.40;3.20;;;7.60;99.90;;;;;;5077455;28;20204;-83
2022/11/12 09:01:39;;;;;;;3.40;3.10;;;7.80;99.90;;;;;;5076880;28;20183;-82
2022/11/12 09:04:04;;;;;;;3.75;3.55;;;7.80;99.90;;;;;;5083013;28;20211;-83
2022/11/12 09:06:30;;;;;;;4.05;3.22;;;8.00;99.90;;;;;;5078759;28;20265;-82
2022/11/12 09:08:56;;;;;;;3.50;3.20;;;8.20;99.90;;;;;;5075761;28;20229;-75
2022/11/12 09:11:21;;;;;;;6.32;4.07;;;8.40;99.90;;;;;;5079993;28;20217;-73
2022/11/12 09:13:48;;;;;;;7.80;3.58;;;8.60;99.90;;;;;;5066790;28;20180;-73
2022/11/12 09:16:14;;;;;;;12.35;3.85;;;8.80;99.90;;;;;;5082232;28;20183;-73
2022/11/12 09:18:39;;;;;;;3.22;2.90;;;8.70;99.90;;;;;;5089791;28;20198;-73
2022/11/12 09:21:10;;;;;;;7.70;3.08;;;8.80;99.90;;;;;;5089482;28;20187;-73
2022/11/12 09:23:37;;;;;;;4.47;3.05;;;8.90;99.90;;;;;;5088089;28;20262;-73
2022/11/12 09:26:03;;;;;;;3.55;3.35;;;9.00;99.90;;;;;;5081236;28;20184;-73
2022/11/12 09:28:29;;;;;;;3.25;3.05;;;9.20;99.90;;;;;;5095781;28;20200;-76
2022/11/12 09:30:55;;;;;;;3.47;3.17;;;9.30;99.90;;;;;;5081186;28;20203;-74
2022/11/12 09:33:24;;;;;;;3.13;2.92;;;9.50;99.90;;;;;;5087967;28;20239;-76
2022/11/12 09:35:51;;;;;;;3.08;2.90;;;9.60;99.90;;;;;;5074260;28;20542;-75
2022/11/12 09:38:17;;;;;;;3.08;2.88;;;9.80;99.90;;;;;;5089513;28;20699;-77
2022/11/12 09:40:51;;;;;;;3.00;2.80;;;10.00;99.90;;;;;;5080990;28;20187;-79
2022/11/12 09:43:28;;;;;;;3.40;3.20;;;10.10;99.90;;;;;;5067803;28;20246;-75
2022/11/12 09:45:58;;;;;;;3.20;2.90;;;10.00;99.90;;;;;;5054813;28;20191;-74
2022/11/12 09:48:31;;;;;;;3.53;3.33;;;10.10;99.90;;;;;;5058947;28;20199;-74
2022/11/12 09:51:10;;;;;;;3.78;3.38;;;10.10;99.90;;;;;;5062636;28;20681;-75
2022/11/12 09:54:04;;;;;;;3.78;3.33;;;10.10;99.90;;;;;;5056031;28;20236;-75
2022/11/12 09:56:30;;;;;;;3.40;3.10;;;10.10;99.90;;;;;;5055862;28;20176;-75
2022/11/12 09:58:56;;;;;;;3.80;3.50;;;10.40;99.90;;;;;;5054187;28;20196;-75
2022/11/12 10:01:40;;;;;;;3.80;3.50;;;10.50;99.90;;;;;;5061994;28;20187;-76
2022/11/12 10:04:40;;;;;;;3.25;3.05;;;10.70;99.90;;;;;;5063818;28;20263;-75
2022/11/12 10:07:13;;;;;;;3.88;3.58;;;10.80;99.90;;;;;;5056897;28;20260;-75
2022/11/12 10:09:45;;;;;;;3.25;3.05;;;10.80;99.90;;;;;;5073483;28;20187;-76
2022/11/12 10:13:05;;;;;;;4.15;3.85;;;10.80;99.90;;;;;;5064718;28;20237;-76
2022/11/12 10:18:57;;;;;;;4.18;3.90;;;10.50;99.90;;;;;;5069670;28;20223;-76
2022/11/12 10:21:35;;;;;;;4.75;4.32;;;10.70;99.90;;;;;;5083693;28;20235;-76
2022/11/12 10:24:02;;;;;;;3.53;3.33;;;10.60;99.90;;;;;;5083432;28;20745;-78
2022/11/12 10:26:31;;;;;;;4.10;3.70;;;10.70;99.90;;;;;;5068237;28;20216;-77
2022/11/12 10:29:21;;;;;;;5.13;3.85;;;10.90;99.90;;;;;;5082639;28;20203;-75
2022/11/12 10:31:46;;;;;;;3.70;3.50;;;11.20;99.90;;;;;;5066904;28;20210;-74
2022/11/12 10:34:12;;;;;;;3.65;3.45;;;11.40;99.90;;;;;;5082000;28;20175;-76
2022/11/12 10:36:41;;;;;;;3.50;3.30;;;11.30;99.90;;;;;;5067250;28;20172;-77
2022/11/12 10:39:07;;;;;;;3.38;3.17;;;11.20;99.90;;;;;;5069314;28;20277;-80
2022/11/12 10:41:33;;;;;;;4.00;3.67;;;11.60;99.90;;;;;;5064036;28;20270;-77
2022/11/12 10:44:04;;;;;;;4.18;3.78;;;11.90;99.90;;;;;;5065607;28;20183;-77
2022/11/12 10:46:32;;;;;;;4.13;3.83;;;12.10;99.90;;;;;;5067812;28;20205;-76
2022/11/12 10:49:07;;;;;;;3.72;3.53;;;12.00;99.90;;;;;;5075839;28;20218;-75
2022/11/12 10:51:36;;;;;;;4.25;3.97;;;11.90;99.90;;;;;;5058817;28;20214;-75
2022/11/12 10:54:27;;;;;;;4.45;4.10;;;11.70;99.90;;;;;;5069449;28;20180;-76
2022/11/12 10:56:53;;;;;;;4.78;4.32;;;11.30;99.90;;;;;;5069854;28;20196;-75
2022/11/12 10:59:22;;;;;;;4.57;4.18;;;11.20;99.90;;;;;;5077494;28;20237;-75
2022/11/12 11:01:56;;;;;;;5.00;4.40;;;11.40;99.90;;;;;;5072253;28;20189;-75
2022/11/12 11:04:34;;;;;;;4.90;4.00;;;11.20;99.90;;;;;;5076724;28;20178;-75
2022/11/12 11:07:25;;;;;;;4.32;3.92;;;11.30;99.90;;;;;;5072583;28;20183;-75
2022/11/12 11:09:52;;;;;;;4.63;4.28;;;11.20;99.90;;;;;;5058741;28;20223;-75
2022/11/12 11:12:32;;;;;;;4.75;4.35;;;11.30;99.90;;;;;;5073281;28;20647;-74
2022/11/12 11:15:21;;;;;;;4.50;4.20;;;11.30;99.90;;;;;;5080522;28;20648;-75
2022/11/12 11:17:47;;;;;;;4.20;3.80;;;11.50;99.90;;;;;;5069216;28;20198;-76
2022/11/12 11:20:34;;;;;;;3.90;3.60;;;11.70;99.90;;;;;;5072615;28;20186;-79
2022/11/12 11:23:20;;;;;;;4.85;4.47;;;11.80;99.90;;;;;;5073755;28;20559;-78
2022/11/12 11:25:52;;;;;;;3.95;3.75;;;11.90;99.90;;;;;;5068129;28;20299;-76
2022/11/12 11:28:31;;;;;;;4.60;4.20;;;11.50;99.90;;;;;;5054353;28;20208;-75
2022/11/12 11:31:14;;;;;;;4.40;4.00;;;11.60;99.90;;;;;;5060933;28;20207;-75
2022/11/12 11:34:21;;;;;;;4.20;3.90;;;11.90;99.90;;;;;;5081367;28;20226;-76
2022/11/12 11:37:14;;;;;;;4.30;4.00;;;11.70;99.90;;;;;;5071948;28;20245;-74
2022/11/12 11:39:54;;;;;;;4.18;3.80;;;11.80;99.90;;;;;;5074210;28;20696;-75
2022/11/12 11:42:39;;;;;;;4.28;3.97;;;11.90;99.90;;;;;;5065307;28;20179;-75
2022/11/12 11:45:21;;;;;;;4.47;4.07;;;12.00;99.90;;;;;;5072865;28;20188;-82
2022/11/12 11:48:12;;;;;;;4.18;3.65;;;11.90;99.90;;;;;;5076417;28;20202;-75
2022/11/12 11:50:54;;;;;;;3.85;3.65;;;11.70;99.90;;;;;;5057107;28;20204;-75
2022/11/12 11:53:32;;;;;;;4.93;4.50;;;11.90;99.90;;;;;;5067765;28;20417;-75
2022/11/12 11:56:47;;;;;;;3.72;3.50;;;12.10;99.90;;;;;;5074003;28;20167;-77
2022/11/12 11:59:21;;;;;;;4.32;4.03;;;12.10;99.90;;;;;;5049840;28;20294;-76
2022/11/12 12:02:08;;;;;;;4.30;4.00;;;12.00;99.90;;;;;;5059823;28;20647;-76
2022/11/12 12:04:59;;;;;;;3.85;3.53;;;11.90;99.90;;;;;;5057754;28;20187;-77
2022/11/12 12:07:38;;;;;;;4.30;4.10;;;12.10;99.90;;;;;;5067583;28;20207;-79
2022/11/12 12:10:21;;;;;;;4.07;3.78;;;11.90;99.90;;;;;;5064810;28;20199;-76
2022/11/12 12:13:30;;;;;;;4.57;4.25;;;11.80;99.90;;;;;;5057971;28;20172;-78
2022/11/12 12:16:05;;;;;;;4.60;4.30;;;11.50;99.90;;;;;;5063000;28;20186;-78
2022/11/12 12:18:56;;;;;;;4.90;4.40;;;11.40;99.90;;;;;;5067246;28;20665;-77
2022/11/12 12:21:25;;;;;;;4.80;4.40;;;11.40;99.90;;;;;;5064840;28;20202;-76
2022/11/12 12:23:59;;;;;;;4.95;4.55;;;11.40;99.90;;;;;;5061475;28;20260;-75
2022/11/12 12:26:45;;;;;;;5.10;4.70;;;11.50;99.90;;;;;;5058514;28;20233;-75
2022/11/12 12:29:22;;;;;;;4.75;4.35;;;11.20;99.90;;;;;;5070558;28;20241;-75
2022/11/12 12:32:12;;;;;;;4.68;4.38;;;11.40;99.90;;;;;;5054658;28;20208;-75
2022/11/12 12:35:09;;;;;;;5.10;4.70;;;11.20;99.90;;;;;;5071948;28;20170;-75
2022/11/12 12:37:47;;;;;;;4.63;4.32;;;11.10;99.90;;;;;;5067957;28;20269;-75
2022/11/12 12:40:37;;;;;;;5.03;4.63;;;11.00;99.90;;;;;;5080556;28;20265;-75
2022/11/12 12:43:14;;;;;;;5.47;4.97;;;10.50;99.90;;;;;;5070710;28;20209;-75
2022/11/12 12:45:45;;;;;;;4.88;4.57;;;10.20;99.90;;;;;;5069245;28;20198;-75
2022/11/12 12:48:44;;;;;;;4.35;4.05;;;10.10;99.90;;;;;;5082787;28;20255;-75
2022/11/12 12:51:10;;;;;;;5.00;4.60;;;10.10;99.90;;;;;;5062267;28;20235;-77
2022/11/12 12:53:36;;;;;;;4.93;4.57;;;10.20;99.90;;;;;;5070338;28;20589;-76
2022/11/12 12:56:04;;;;;;;4.60;4.30;;;10.30;99.90;;;;;;5079800;28;20170;-76
2022/11/12 12:58:31;;;;;;;5.07;4.70;;;10.20;99.90;;;;;;5071361;28;20201;-76
2022/11/12 13:01:18;;;;;;;5.38;4.97;;;10.10;99.90;;;;;;5067217;28;20191;-75
2022/11/12 13:04:07;;;;;;;5.65;5.22;;;9.90;99.90;;;;;;5064077;28;20532;-75
2022/11/12 13:06:44;;;;;;;5.32;4.90;;;9.80;99.90;;;;;;5075684;28;20166;-75
2022/11/12 13:09:15;;;;;;;5.25;4.85;;;9.70;99.90;;;;;;5083750;28;20198;-75
2022/11/12 13:14:37;;;;;;;6.00;5.50;;;9.50;99.90;;;;;;5064447;28;20186;-77
2022/11/12 13:17:06;;;;;;;6.88;6.25;;;9.60;99.90;;;;;;5055618;28;20545;-76
2022/11/12 13:19:34;;;;;;;5.82;5.43;;;9.60;99.90;;;;;;5063356;28;20206;-77
2022/11/12 13:22:18;;;;;;;6.43;5.85;;;9.50;99.90;;;;;;5054661;28;20184;-77
2022/11/12 13:25:12;;;;;;;6.15;5.65;;;9.30;99.90;;;;;;5054371;28;20188;-79
2022/11/12 13:27:43;;;;;;;6.35;5.70;;;9.10;99.90;;;;;;5055175;28;20202;-78
2022/11/12 13:30:12;;;;;;;6.45;5.95;;;9.10;99.90;;;;;;5059575;28;20208;-77